Latest Weather Observations for Neptune Island

IDS60801

Issued at 7:05 pm CDT Tuesday 21 October 2014 (issued every 30 minutes, with the page automatically refreshed every 10 minutes)

About weather observations | Map of weather stations | Latest weather observations for SA | Other Formats
Station Details ID: 018115 Name: NEPTUNE ISLAND Lat: -35.34 Lon: 136.12 Height: 32.0 m
Data from the previous 72 hours. | See also: Recent months at Neptune Island
Date/Time
CDT
Temp
°C
App
Temp
°C
Dew
Point
Rel
Hum
%
Delta-T
°C
Wind Press
QNH
hPa
Press
MSL
hPa
Rain
since 9 am
mm
Dir
 
Spd
km/h
Gust
km/h
Spd
kts
Gust
kts
21/07:00pm 22.5 20.3 10.9 48 6.4 SW 13 24 7 13 1014.9 1014.9 0.0
21/06:30pm 21.4 20.9 12.5 57 5.0 WNW 7 11 4 6 1014.8 1014.8 0.0
21/06:00pm 21.8 20.9 12.6 56 5.2 N 9 17 5 9 1014.8 1014.8 0.0
21/05:30pm 21.7 19.3 12.5 56 5.2 NE 17 20 9 11 1015.0 1015.0 0.0
21/05:00pm 20.3 17.6 13.0 63 4.1 NE 19 24 10 13 1014.9 1014.9 0.0
21/04:30pm 21.0 18.6 12.7 59 4.7 NNE 17 32 9 17 1014.9 1014.9 0.0
21/04:00pm 20.4 17.9 13.6 65 3.9 NNE 19 26 10 14 1015.0 1015.0 0.0
21/03:30pm 20.1 16.7 13.6 66 3.7 NNE 24 28 13 15 1014.9 1014.9 0.0
21/03:00pm 20.4 16.8 14.3 68 3.5 NNE 26 30 14 16 1015.0 1015.0 0.0
21/02:30pm 19.9 16.5 13.8 68 3.5 NNE 24 32 13 17 1015.1 1015.1 0.0
21/02:00pm 20.0 17.0 13.7 67 3.6 NNE 22 28 12 15 1015.8 1015.7 0.0
21/01:30pm 20.5 18.1 14.4 68 3.6 NNE 20 28 11 15 1016.1 1016.0 0.0
21/01:00pm 20.4 17.5 14.1 67 3.7 NE 22 30 12 16 1016.2 1016.1 0.0
21/12:30pm 20.4 16.3 13.8 66 3.8 NE 28 35 15 19 1016.6 1016.5 0.0
21/12:00pm 20.1 17.1 13.6 66 3.7 NE 22 30 12 16 1017.1 1017.0 0.0
21/11:30am 19.4 16.7 12.9 66 3.7 NNE 19 24 10 13 1017.6 1017.5 0.0
21/11:00am 20.1 17.9 13.3 65 3.9 NNE 17 20 9 11 1017.7 1017.6 0.0
21/10:30am 20.6 17.2 13.6 64 4.0 NE 24 30 13 16 1017.8 1017.7 0.0
21/10:00am 19.4 14.6 12.9 66 3.7 NE 30 39 16 21 1017.6 1017.5 0.0
21/09:30am 19.4 13.2 12.7 65 3.8 ENE 37 41 20 22 1017.0 1016.9 0.0
21/09:00am 19.4 13.6 12.7 65 3.8 NE 35 41 19 22 1017.1 1017.0 0.0
21/08:30am 18.5 12.7 12.7 69 3.2 NE 35 41 19 22 1017.1 1017.0 0.0
21/08:00am 18.3 12.6 13.0 71 3.0 ENE 35 41 19 22 1016.9 1016.8 0.0
21/07:30am 17.8 13.1 13.1 74 2.6 ENE 30 33 16 18 1016.8 1016.7 0.0
21/07:00am 17.7 12.9 13.0 74 2.6 ENE 30 33 16 18 1016.7 1016.6 0.0
21/06:30am 17.9 13.1 12.8 72 2.8 ENE 30 33 16 18 1016.3 1016.2 0.0
21/06:00am 18.0 11.9 12.9 72 2.9 ENE 37 43 20 23 1016.0 1015.9 0.0
21/05:30am 17.7 12.1 13.2 75 2.5 ENE 35 39 19 21 1015.8 1015.7 0.0
21/05:00am 17.2 12.0 13.5 79 2.1 ENE 33 35 18 19 1015.9 1015.8 0.0
21/04:30am 17.2 12.1 13.7 80 2.0 ENE 33 37 18 20 1015.8 1015.7 0.0
21/04:00am 17.1 10.8 13.6 80 2.0 ENE 39 43 21 23 1015.6 1015.5 0.0
21/03:30am 17.0 10.8 13.7 81 1.9 ENE 39 44 21 24 1015.7 1015.6 0.0
21/03:00am 17.0 10.8 13.7 81 1.9 ENE 39 46 21 25 1016.0 1015.9 0.0
21/02:30am 17.1 10.1 13.6 80 2.0 ENE 43 48 23 26 1016.3 1016.2 0.0
21/02:00am 17.1 9.8 13.4 79 2.1 ENE 44 50 24 27 1016.5 1016.4 0.0
21/01:30am 17.2 10.1 13.3 78 2.2 ENE 43 52 23 28 1017.0 1016.9 0.0
21/01:00am 17.2 10.1 13.3 78 2.2 ENE 43 52 23 28 1017.3 1017.2 0.0
21/12:30am 17.3 9.2 13.2 77 2.3 ENE 48 56 26 30 1017.4 1017.3 0.0
21/12:00am 17.1 9.9 13.0 77 2.3 E 43 54 23 29 1017.9 1017.8 0.0
 
Date/Time
CDT
Temp
°C
App
Temp
°C
Dew
Point
Rel
Hum
%
Delta-T
°C
Wind Press
QNH
hPa
Press
MSL
hPa
Rain
since 9 am
mm
Dir
 
Spd
km/h
Gust
km/h
Spd
kts
Gust
kts
20/11:30pm 17.2 9.9 12.9 76 2.4 E 43 50 23 27 1018.3 1018.2 0.0
20/11:00pm 17.3 9.8 12.8 75 2.5 E 44 54 24 29 1018.4 1018.3 0.0
20/10:30pm 17.4 10.2 13.1 76 2.4 E 43 50 23 27 1018.6 1018.5 0.0
20/10:00pm 17.0 11.0 13.3 79 2.1 E 37 43 20 23 1019.0 1018.9 0.0
20/09:30pm 17.0 11.8 13.3 79 2.1 E 33 43 18 23 1019.2 1019.1 0.0
20/09:00pm 17.1 11.1 13.4 79 2.1 E 37 43 20 23 1019.1 1019.0 0.0
20/08:30pm 17.3 11.3 13.4 78 2.2 E 37 44 20 24 1018.7 1018.6 0.0
20/08:00pm 17.5 11.5 13.4 77 2.3 E 37 43 20 23 1018.6 1018.5 0.0
20/07:30pm 17.7 12.5 13.4 76 2.4 E 33 39 18 21 1018.4 1018.3 0.0
20/07:00pm 18.0 12.5 13.5 75 2.6 E 35 41 19 22 1018.2 1018.1 0.0
20/06:30pm 18.2 13.0 13.5 74 2.7 E 33 41 18 22 1018.3 1018.2 0.0
20/06:00pm 18.7 13.6 13.6 72 2.9 E 33 39 18 21 1018.5 1018.4 0.0
20/05:30pm 19.4 14.3 13.1 67 3.6 E 32 37 17 20 1018.7 1018.6 0.0
20/05:00pm 19.6 14.9 13.3 67 3.6 E 30 37 16 20 1018.9 1018.8 0.0
20/04:30pm 19.7 14.1 13.2 66 3.7 E 35 43 19 23 1019.0 1018.9 0.0
20/04:00pm 19.5 13.3 12.7 65 3.8 E 37 46 20 25 1019.4 1019.3 0.0
20/03:30pm 18.6 12.0 12.6 68 3.3 E 39 46 21 25 1019.7 1019.6 0.0
20/03:00pm 19.4 13.3 13.1 67 3.6 E 37 46 20 25 1020.0 1019.9 0.0
20/02:30pm 18.7 11.3 12.5 67 3.5 E 43 50 23 27 1020.3 1020.2 0.0
20/02:00pm 18.8 11.8 12.5 67 3.5 E 41 50 22 27 1020.7 1020.6 0.0
20/01:30pm 18.5 10.9 12.5 68 3.3 E 44 54 24 29 1021.2 1021.1 0.0
20/01:00pm 18.2 11.5 12.4 69 3.2 E 39 50 21 27 1021.6 1021.5 0.0
20/12:30pm 17.9 10.3 12.4 70 3.0 E 44 56 24 30 1022.0 1021.9 0.0
20/12:00pm 17.2 8.8 12.3 73 2.7 E 48 57 26 31 1022.3 1022.2 0.0
20/11:30am 17.2 9.3 12.7 75 2.5 E 46 57 25 31 1022.7 1022.7 0.0
20/11:00am 16.6 8.4 12.9 79 2.1 E 48 57 26 31 1022.9 1022.9 0.0
20/10:30am 16.1 7.8 12.7 80 1.9 E 48 61 26 33 1023.2 1023.2 0.0
20/10:00am 16.0 7.3 12.4 79 2.0 E 50 59 27 32 1023.2 1023.2 0.0
20/09:30am 16.0 7.3 12.6 80 1.9 E 50 61 27 33 1023.0 1023.0 0.0
20/09:00am 15.2 5.9 12.0 81 1.7 E 52 65 28 35 1022.8 1022.8 0.0
20/08:30am 14.7 5.4 11.8 83 1.6 E 52 59 28 32 1022.8 1022.8 0.0
20/08:13am 14.5 6.3 11.6 83 1.6 E 46 65 25 35 1022.7 1022.7 0.0
20/08:00am 14.6 5.3 11.7 83 1.6 E 52 61 28 33 1022.9 1022.9 0.0
20/07:30am 14.4 5.8 11.7 84 1.4 E 48 59 26 32 1022.8 1022.8 0.0
20/07:00am 14.3 5.7 11.6 84 1.4 E 48 59 26 32 1022.4 1022.3 0.0
20/06:30am 14.3 5.7 11.5 83 1.5 E 48 59 26 32 1022.4 1022.3 0.0
20/06:00am 14.4 6.2 11.6 83 1.5 E 46 57 25 31 1021.9 1021.8 0.0
20/05:30am 14.5 6.8 11.6 83 1.6 E 43 52 23 28 1022.3 1022.2 0.0
20/05:00am 14.5 6.8 11.6 83 1.6 E 43 54 23 29 1022.5 1022.5 0.0
20/04:30am 14.4 6.5 11.4 82 1.6 E 44 57 24 31 1022.1 1022.0 0.0
20/04:00am 14.3 6.0 11.3 82 1.6 E 46 59 25 32 1022.1 1022.0 0.0
20/03:30am 14.3 5.9 11.1 81 1.7 E 46 56 25 30 1022.0 1021.9 0.0
20/03:00am 14.4 6.6 11.2 81 1.7 E 43 54 23 29 1022.2 1022.1 0.0
20/02:30am 14.4 6.4 11.0 80 1.8 ESE 44 54 24 29 1022.3 1022.2 0.0
20/02:00am 14.4 6.6 11.0 80 1.8 ESE 43 54 23 29 1022.5 1022.5 0.0
20/01:30am 14.5 6.7 11.3 81 1.7 ESE 43 52 23 28 1022.6 1022.6 0.0
20/01:00am 14.5 7.1 11.1 80 1.8 E 41 50 22 27 1022.3 1022.2 0.0
20/12:30am 14.5 6.6 10.9 79 1.9 E 43 52 23 28 1022.5 1022.5 0.0
20/12:00am 14.7 7.7 11.3 80 1.8 E 39 48 21 26 1022.8 1022.8 0.0
 
Date/Time
CDT
Temp
°C
App
Temp
°C
Dew
Point
Rel
Hum
%
Delta-T
°C
Wind Press
QNH
hPa
Press
MSL
hPa
Rain
since 9 am
mm
Dir
 
Spd
km/h
Gust
km/h
Spd
kts
Gust
kts
19/11:30pm 14.8 7.5 11.4 80 1.8 E 41 50 22 27 1022.9 1022.9 0.0
19/11:00pm 14.8 7.0 11.2 79 1.9 E 43 54 23 29 1023.1 1023.1 0.0
19/10:30pm 14.9 6.6 11.3 79 1.9 ESE 46 54 25 29 1023.1 1023.1 0.0
19/10:00pm 15.1 7.5 11.9 81 1.7 E 43 50 23 27 1023.0 1023.0 0.0
19/09:30pm 15.2 7.0 11.8 80 1.8 E 46 54 25 29 1022.8 1022.8 0.0
19/09:00pm 15.6 9.6 12.2 80 1.8 ESE 35 43 19 23 1022.8 1022.8 0.0
19/08:30pm 15.7 8.5 11.9 78 2.1 ESE 41 50 22 27 1022.4 1022.3 0.0
19/08:00pm 16.0 8.8 12.0 77 2.2 ESE 41 48 22 26 1022.1 1022.0 0.0
19/07:30pm 16.4 10.1 12.4 77 2.2 ESE 37 48 20 26 1021.9 1021.8 0.0
19/07:00pm 16.5 10.7 12.8 79 2.1 ESE 35 43 19 23 1021.5 1021.4 0.0
19/06:30pm 16.6 10.1 12.8 78 2.1 ESE 39 46 21 25 1021.2 1021.1 0.0
19/06:00pm 16.9 9.4 12.8 77 2.3 SE 44 54 24 29 1021.1 1021.0 0.0
19/05:30pm 17.0 9.8 13.1 78 2.2 SE 43 56 23 30 1021.0 1020.9 0.0
19/05:00pm 17.3 10.1 13.2 77 2.3 SE 43 52 23 28 1020.9 1020.8 0.0
19/04:30pm 17.6 10.2 13.1 75 2.5 SE 44 57 24 31 1020.6 1020.5 0.0
19/04:00pm 17.3 8.7 13.0 76 2.4 SSE 50 61 27 33 1020.4 1020.3 0.0
19/03:30pm 17.3 8.8 13.2 77 2.3 SSE 50 61 27 33 1020.5 1020.4 0.0
19/03:00pm 17.0 8.9 13.1 78 2.2 SSE 48 65 26 35 1020.5 1020.4 0.0
19/02:30pm 17.1 10.4 13.4 79 2.1 SSE 41 56 22 30 1020.6 1020.5 0.0
19/02:00pm 17.3 10.1 13.8 80 2.0 SSE 44 54 24 29 1020.6 1020.5 0.0
19/01:30pm 17.5 12.1 13.8 79 2.1 SSE 35 46 19 25 1020.6 1020.5 0.0
19/01:00pm 18.3 13.6 14.4 78 2.3 SSE 32 41 17 22 1020.2 1020.1 0.0
19/12:30pm 17.6 11.5 14.1 80 2.0 SSE 39 46 21 25 1020.2 1020.1 0.0
19/12:00pm 17.3 11.2 14.0 81 1.9 SSE 39 46 21 25 1020.3 1020.2 0.0
19/11:30am 16.4 9.4 13.7 84 1.5 SSE 43 52 23 28 1020.5 1020.4 0.0
19/11:00am 16.9 9.8 14.0 83 1.7 S 44 50 24 27 1020.6 1020.5 0.0
19/10:30am 17.5 12.8 14.2 81 1.9 S 32 39 17 21 1020.4 1020.3 0.0
19/10:00am 18.3 17.8 15.0 81 1.9 E 11 28 6 15 1020.1 1020.0 0.0
19/09:30am 17.7 17.0 14.4 81 1.9 E 11 13 6 7 1019.5 1019.4 0.0
19/09:00am 17.9 17.1 15.2 84 1.6 SE 13 13 7 7 1019.3 1019.2 0.0
19/08:30am 17.2 15.9 14.8 86 1.4 ESE 15 17 8 9 1018.6 1018.5 0.0
19/08:00am 16.7 15.7 14.5 87 1.3 E 13 20 7 11 1018.0 1017.9 0.0
19/07:30am 16.2 13.9 14.2 88 1.1 SE 19 22 10 12 1017.9 1017.8 0.0
19/07:00am 15.8 13.4 13.8 88 1.1 SE 19 22 10 12 1017.7 1017.6 0.0
19/06:30am 15.9 13.3 13.9 88 1.1 SE 20 24 11 13 1017.0 1016.9 0.0
19/06:00am 16.0 14.0 13.8 87 1.2 SE 17 19 9 10 1016.4 1016.3 0.0
19/05:30am 16.3 13.8 14.0 86 1.3 E 20 22 11 12 1015.9 1015.8 0.0
19/05:00am 16.0 13.9 13.7 86 1.3 E 17 20 9 11 1016.0 1015.9 0.0
19/04:30am 16.0 14.0 13.8 87 1.2 E 17 20 9 11 1015.9 1015.8 0.0
19/04:00am 16.0 13.0 13.8 87 1.2 E 22 24 12 13 1015.3 1015.3 0.0
19/03:30am 15.9 13.8 13.7 87 1.2 ESE 17 20 9 11 1015.8 1015.7 0.0
19/03:00am 15.9 14.6 13.7 87 1.2 SE 13 17 7 9 1016.3 1016.2 0.0
19/02:30am 16.1 15.3 13.9 87 1.2 SSE 11 13 6 7 1017.0 1016.9 0.0
19/02:00am 16.0 14.7 13.8 87 1.2 E 13 15 7 8 1017.0 1016.9 0.0
19/01:30am 15.9 13.3 13.9 88 1.1 E 20 24 11 13 1016.9 1016.8 0.0
19/01:00am 15.8 13.3 13.6 87 1.2 ESE 19 20 10 11 1017.3 1017.2 0.0
19/12:30am 15.9 13.3 13.9 88 1.1 SE 20 22 11 12 1017.3 1017.2 0.0
19/12:00am 16.0 14.0 14.0 88 1.1 SSE 17 19 9 10 1017.4 1017.3 0.0
 
Date/Time
CDT
Temp
°C
App
Temp
°C
Dew
Point
Rel
Hum
%
Delta-T
°C
Wind Press
QNH
hPa
Press
MSL
hPa
Rain
since 9 am
mm
Dir
 
Spd
km/h
Gust
km/h
Spd
kts
Gust
kts
18/11:30pm 16.0 13.6 13.8 87 1.2 SSE 19 24 10 13 1017.6 1017.5 0.0
18/11:00pm 16.0 13.5 13.5 85 1.4 SSE 19 20 10 11 1018.0 1017.9 0.0
18/10:30pm 16.0 14.2 13.3 84 1.5 S 15 17 8 9 1018.6 1018.5 0.0
18/10:00pm 16.1 15.0 13.0 82 1.7 SE 11 13 6 7 1018.9 1018.8 0.0
18/09:30pm 15.8 13.7 12.5 81 1.8 E 15 17 8 9 1018.9 1018.8 0.0
18/09:00pm 16.0 14.0 12.6 80 1.9 E 15 19 8 10 1018.5 1018.4 0.0
18/08:30pm 16.2 14.2 12.7 80 1.9 ESE 15 20 8 11 1018.1 1018.0 0.0
18/08:00pm 16.3 15.0 12.5 78 2.1 ESE 11 19 6 10 1018.1 1018.0 0.0
18/07:30pm 16.9 14.2 12.8 77 2.3 ESE 19 24 10 13 1017.8 1017.7 0.0

Other Formats:

Comma delimited format used in spreadsheet applications
http://www.bom.gov.au/fwo/IDS60801/IDS60801.94804.axf

JavaScript Object Notation format (JSON) in row-major order
http://www.bom.gov.au/fwo/IDS60801/IDS60801.94804.json